EST,Max TemperatureF,Mean TemperatureF,Min TemperatureF,Max Dew PointF,MeanDew PointF,Min DewpointF,Max Humidity, Mean Humidity, Min Humidity, Max Sea Level PressureIn, Mean Sea Level PressureIn, Min Sea Level PressureIn, Max VisibilityMiles, Mean VisibilityMiles, Min VisibilityMiles, Max Wind SpeedMPH, Mean Wind SpeedMPH, Max Gust SpeedMPH,PrecipitationIn, CloudCover, Events, WindDirDegrees
2012-11-1,79,69,59,67,62,57,97,77,56,30.07,30.03,29.99,10,10,7,14,4,18,0.00,1,,269
2012-11-2,80,72,63,68,61,48,100,68,35,30.10,30.05,30.02,10,9,2,12,5,15,0.00,1,,336
2012-11-3,83,70,57,67,60,52,100,68,36,30.15,30.09,30.05,10,9,6,13,4,15,0.00,0,,1
2012-11-4,81,70,58,66,61,56,100,73,45,30.12,30.08,30.01,10,6,0,12,2,17,0.00,1,Fog,276
2012-11-5,77,71,65,68,65,63,100,82,64,30.03,29.98,29.95,10,9,6,9,2,13,0.00,0,,262
2012-11-6,78,72,65,70,68,64,100,84,67,29.95,29.90,29.85,10,8,1,14,4,20,0.11,4,Rain,212
2012-11-7,71,67,62,66,56,50,93,76,59,30.01,29.94,29.87,10,10,10,18,7,25,0.00,2,,347
2012-11-8,70,62,54,51,42,36,80,55,30,30.16,30.08,29.99,10,10,10,17,7,25,0.00,3,,19
2012-11-9,77,65,52,56,48,41,78,56,33,30.22,30.17,30.13,10,10,10,16,8,20,0.00,1,,39
2012-11-10,78,68,57,57,55,53,86,66,46,30.27,30.22,30.17,10,10,10,18,8,22,0.00,5,,51
2012-11-11,82,72,61,61,59,56,90,67,43,30.23,30.20,30.16,10,10,10,23,9,29,0.00,2,,60
2012-11-12,81,73,64,70,66,63,100,81,62,30.20,30.16,30.12,10,10,9,20,7,24,T,4,Rain,54
2012-11-13,82,74,65,68,65,62,100,77,54,30.15,30.10,30.06,10,10,8,16,6,20,0.00,0,,44
2012-11-14,83,74,65,68,66,64,100,79,58,30.13,30.09,30.05,10,10,10,13,6,16,0.00,2,,23
2012-11-15,81,72,63,68,65,63,100,79,58,30.12,30.08,30.04,10,8,1,14,6,17,0.00,3,,23
2012-11-16,75,69,63,65,62,60,100,84,68,30.12,30.09,30.04,10,9,8,15,7,17,0.00,4,,25
2012-11-17,83,72,61,65,63,60,100,77,54,30.10,30.07,30.02,10,9,5,18,10,22,0.00,3,,44
2012-11-18,78,71,64,65,63,59,93,77,60,30.13,30.09,30.05,10,10,9,20,12,23,0.00,1,,33
2012-11-19,78,68,57,61,56,51,93,68,43,30.15,30.10,30.04,10,10,9,15,9,20,0.00,1,,14
2012-11-20,71,65,58,63,59,55,100,87,73,30.09,30.03,29.97,10,9,6,14,7,18,0.00,5,,340
2012-11-21,76,67,58,55,52,48,86,65,43,30.08,30.02,29.97,10,10,10,16,7,22,0.00,0,,358
2012-11-22,75,65,54,49,43,36,83,53,23,30.16,30.10,30.05,10,10,10,15,7,21,0.00,0,,11
2012-11-23,74,64,53,55,47,37,73,57,41,30.19,30.13,30.08,10,10,10,15,7,18,0.00,0,,348
2012-11-24,74,62,50,62,55,48,93,73,53,30.13,30.08,30.03,10,9,7,16,6,21,0.00,0,,318
2012-11-25,70,60,50,54,50,48,93,71,49,30.16,30.11,30.07,10,10,10,12,4,17,0.00,0,,346
2012-11-26,79,65,50,63,59,50,96,74,52,30.19,30.15,30.11,10,9,5,14,4,17,0.00,1,,71
2012-11-27,81,71,60,67,64,60,100,79,58,30.18,30.14,30.10,10,9,7,15,6,18,0.00,2,,139
2012-11-28,78,71,63,66,63,60,100,78,56,30.21,30.16,30.11,10,9,6,14,6,20,0.00,2,,19
2012-11-29,82,70,58,62,59,57,100,73,45,30.22,30.18,30.12,10,9,6,20,12,25,0.00,2,,45
2012-11-30,80,72,63,63,61,60,93,74,54,30.21,30.16,30.12,10,10,9,21,10,24,0.00,2,,62